createdAt,value
2019-03-12T00:00:26.893Z,55.33
2019-03-12T00:02:34.477Z,48.30
2019-03-12T00:04:42.105Z,30.15
2019-03-12T00:06:49.682Z,57.78
2019-03-12T00:08:57.262Z,49.45
2019-03-12T00:11:05.009Z,53.87
2019-03-12T00:13:12.582Z,28.92
2019-03-12T00:15:20.277Z,39.10
2019-03-12T00:17:27.941Z,42.43
2019-03-12T00:19:35.525Z,29.55
2019-03-12T00:21:43.210Z,36.93
2019-03-12T00:23:51.002Z,23.15
2019-03-12T00:25:58.645Z,59.75
2019-03-12T00:28:06.284Z,35.63
2019-03-12T00:30:14.343Z,50.90
2019-03-12T00:32:22.000Z,33.55
2019-03-12T00:34:29.814Z,45.65
2019-03-12T00:36:37.429Z,27.60
2019-03-12T00:38:46.657Z,29.92
2019-03-12T00:40:54.244Z,56.92
2019-03-12T00:43:01.894Z,38.28
2019-03-12T00:45:12.224Z,38.45
2019-03-12T00:47:19.803Z,30.65
2019-03-12T00:49:27.426Z,24.37
2019-03-12T00:51:35.116Z,36.95
2019-03-12T00:53:42.697Z,31.48
2019-03-12T00:55:50.305Z,29.90
2019-03-12T00:57:57.949Z,42.67
2019-03-12T01:00:19.948Z,23.57
2019-03-12T01:02:27.658Z,45.45
2019-03-12T01:04:36.279Z,33.10
2019-03-12T01:06:43.932Z,38.88
2019-03-12T01:08:51.611Z,25.52
2019-03-12T01:10:59.184Z,30.72
2019-03-12T01:13:17.033Z,28.10
2019-03-12T01:15:26.067Z,28.50
2019-03-12T01:17:33.749Z,42.53
2019-03-12T01:19:41.327Z,24.92
2019-03-12T01:21:48.947Z,34.58
2019-03-12T01:23:56.963Z,42.98
2019-03-12T01:26:04.614Z,38.17
2019-03-12T01:28:12.223Z,23.57
2019-03-12T01:30:20.287Z,39.55
2019-03-12T01:32:27.869Z,23.90
2019-03-12T01:34:35.482Z,33.58
2019-03-12T01:36:43.206Z,27.75
2019-03-12T01:38:50.857Z,28.40
2019-03-12T01:40:58.536Z,21.12
2019-03-12T01:43:06.564Z,50.48
2019-03-12T01:45:15.432Z,45.03
2019-03-12T01:47:23.045Z,33.18
2019-03-12T01:49:30.896Z,36.28
2019-03-12T01:51:38.484Z,28.35
2019-03-12T01:53:45.984Z,26.85
2019-03-12T01:55:53.645Z,41.77
2019-03-12T01:58:01.217Z,15.95
2019-03-12T02:00:13.850Z,58.70
2019-03-12T02:02:21.415Z,16.48
2019-03-12T02:04:29.149Z,24.75
2019-03-12T02:06:36.816Z,18.70
2019-03-12T02:08:45.353Z,18.12
2019-03-12T02:10:52.990Z,23.45
2019-03-12T02:13:00.481Z,23.60
2019-03-12T02:15:16.826Z,35.28
2019-03-12T02:17:24.418Z,32.53
2019-03-12T02:19:32.002Z,35.60
2019-03-12T02:21:39.651Z,23.55
2019-03-12T02:23:47.392Z,30.82
2019-03-12T02:25:55.137Z,32.05
2019-03-12T02:28:02.711Z,24.23
2019-03-12T02:30:17.751Z,34.65
2019-03-12T02:32:25.434Z,17.23
2019-03-12T02:34:32.996Z,25.43
2019-03-12T02:36:40.668Z,15.95
2019-03-12T02:38:48.479Z,17.85
2019-03-12T02:40:57.352Z,21.62
2019-03-12T02:43:05.196Z,13.72
2019-03-12T02:45:17.137Z,23.30
2019-03-12T02:47:24.831Z,27.40
2019-03-12T02:49:32.477Z,35.70
2019-03-12T02:51:40.167Z,31.35
2019-03-12T02:53:47.727Z,21.95
2019-03-12T02:55:55.376Z,25.60
2019-03-12T02:58:03.069Z,40.43
2019-03-12T03:00:19.397Z,33.65
2019-03-12T03:02:26.966Z,19.65
2019-03-12T03:04:34.477Z,23.42
2019-03-12T03:06:43.668Z,31.25
2019-03-12T03:08:51.330Z,33.13
2019-03-12T03:10:58.957Z,20.17
2019-03-12T03:13:08.115Z,25.02
2019-03-12T03:15:25.903Z,23.85
2019-03-12T03:17:33.501Z,24.50
2019-03-12T03:19:41.077Z,28.10
2019-03-12T03:21:48.747Z,18.85
2019-03-12T03:23:56.339Z,23.05
2019-03-12T03:26:04.014Z,24.85
2019-03-12T03:28:11.693Z,22.75
2019-03-12T03:30:24.657Z,21.20
2019-03-12T03:32:32.296Z,21.85
2019-03-12T03:34:39.772Z,29.70
2019-03-12T03:36:47.566Z,32.38
2019-03-12T03:38:55.369Z,26.12
2019-03-12T03:41:03.616Z,21.82
2019-03-12T03:43:11.289Z,41.20
2019-03-12T03:45:19.490Z,27.67
2019-03-12T03:47:27.058Z,24.15
2019-03-12T03:49:34.663Z,23.85
2019-03-12T03:51:42.339Z,28.83
2019-03-12T03:53:51.201Z,23.02
2019-03-12T03:55:58.798Z,32.35
2019-03-12T03:58:06.480Z,30.52
2019-03-12T04:00:24.636Z,30.60
2019-03-12T04:02:32.225Z,31.50
2019-03-12T04:04:39.799Z,37.95
2019-03-12T04:06:48.588Z,29.85
2019-03-12T04:08:56.190Z,28.15
2019-03-12T04:11:03.856Z,13.22
2019-03-12T04:13:12.806Z,29.45
2019-03-12T04:15:20.826Z,22.65
2019-03-12T04:17:28.489Z,26.17
2019-03-12T04:19:36.161Z,19.95
2019-03-12T04:21:43.769Z,20.08
2019-03-12T04:23:51.338Z,30.97
2019-03-12T04:25:59.064Z,28.67
2019-03-12T04:28:06.653Z,31.82
2019-03-12T04:30:19.713Z,27.73
2019-03-12T04:32:27.269Z,25.80
2019-03-12T04:34:35.091Z,21.55
2019-03-12T04:36:42.746Z,24.87
2019-03-12T04:38:50.784Z,24.65
2019-03-12T04:40:58.481Z,27.15
2019-03-12T04:43:06.186Z,16.42
2019-03-12T04:45:16.645Z,24.65
2019-03-12T04:47:25.219Z,18.30
2019-03-12T04:49:32.868Z,32.00
2019-03-12T04:51:40.803Z,36.30
2019-03-12T04:53:49.532Z,15.63
2019-03-12T04:55:57.146Z,25.60
2019-03-12T04:58:04.721Z,20.12
2019-03-12T05:00:20.684Z,23.07
2019-03-12T05:02:28.359Z,30.05
2019-03-12T05:04:35.930Z,19.42
2019-03-12T05:06:43.527Z,25.85
2019-03-12T05:08:51.097Z,26.82
2019-03-12T05:10:58.772Z,22.60
2019-03-12T05:13:06.463Z,26.15
2019-03-12T05:15:19.575Z,32.58
2019-03-12T05:17:27.214Z,28.87
2019-03-12T05:19:34.929Z,24.57
2019-03-12T05:21:44.874Z,20.57
2019-03-12T05:23:51.770Z,29.60
2019-03-12T05:25:59.384Z,31.02
2019-03-12T05:28:07.121Z,21.50
2019-03-12T05:30:19.496Z,22.17
2019-03-12T05:32:27.139Z,19.35
2019-03-12T05:34:34.777Z,22.15
2019-03-12T05:36:42.368Z,17.40
2019-03-12T05:38:50.156Z,20.23
2019-03-12T05:40:57.718Z,19.50
2019-03-12T05:43:05.456Z,18.87
2019-03-12T05:45:19.672Z,19.60
2019-03-12T05:47:27.395Z,18.95
2019-03-12T05:49:34.959Z,15.03
2019-03-12T05:51:42.544Z,24.00
2019-03-12T05:53:52.218Z,23.92
2019-03-12T05:55:59.782Z,39.15
2019-03-12T05:58:07.465Z,19.65
2019-03-12T06:00:21.985Z,18.12
2019-03-12T06:02:29.551Z,33.65
2019-03-12T06:04:38.224Z,29.87
2019-03-12T06:06:45.904Z,28.05
2019-03-12T06:08:53.472Z,39.55
2019-03-12T06:11:01.261Z,22.67
2019-03-12T06:13:08.943Z,35.90
2019-03-12T06:15:17.509Z,17.12
2019-03-12T06:17:25.331Z,22.13
2019-03-12T06:19:34.166Z,26.15
2019-03-12T06:21:41.814Z,22.98
2019-03-12T06:23:50.443Z,18.07
2019-03-12T06:25:58.022Z,20.72
2019-03-12T06:28:05.647Z,24.18
2019-03-12T06:30:21.415Z,19.55
2019-03-12T06:32:36.657Z,22.05
2019-03-12T06:34:45.798Z,23.87
2019-03-12T06:36:57.796Z,21.57
2019-03-12T06:39:12.279Z,18.35
2019-03-12T06:41:31.463Z,21.65
2019-03-12T06:43:46.436Z,16.45
2019-03-12T06:46:01.685Z,24.70
2019-03-12T06:48:27.350Z,27.65
2019-03-12T06:50:41.451Z,14.10
2019-03-12T06:53:06.969Z,21.12
2019-03-12T06:55:32.582Z,21.10
2019-03-12T06:57:58.485Z,27.67
2019-03-12T07:00:12.729Z,23.32
2019-03-12T07:02:21.941Z,19.80
2019-03-12T07:04:46.460Z,23.85
2019-03-12T07:07:11.560Z,23.73
2019-03-12T07:09:19.767Z,24.72
2019-03-12T07:11:37.637Z,25.48
2019-03-12T07:13:46.952Z,21.17
2019-03-12T07:16:05.324Z,22.80
2019-03-12T07:18:16.157Z,20.55
2019-03-12T07:20:29.482Z,24.95
2019-03-12T07:22:57.053Z,25.35
2019-03-12T07:25:12.114Z,23.22
2019-03-12T07:27:21.485Z,24.55
2019-03-12T07:29:42.000Z,19.95
2019-03-12T07:31:51.314Z,24.63
2019-03-12T07:34:09.448Z,21.20
2019-03-12T07:36:25.454Z,14.93
2019-03-12T07:38:37.473Z,19.73
2019-03-12T07:41:02.994Z,28.80
2019-03-12T07:43:15.304Z,28.70
2019-03-12T07:45:27.180Z,22.73
2019-03-12T07:47:42.422Z,19.95
2019-03-12T07:49:54.368Z,39.05
2019-03-12T07:52:04.757Z,15.40
2019-03-12T07:54:17.893Z,20.08
2019-03-12T07:56:27.897Z,16.30
2019-03-12T07:58:55.595Z,16.25
2019-03-12T08:01:06.272Z,12.15
2019-03-12T08:03:25.595Z,18.75
2019-03-12T08:05:49.794Z,18.35
2019-03-12T08:08:04.830Z,16.52
2019-03-12T08:10:14.181Z,16.15
2019-03-12T08:12:25.011Z,17.92
2019-03-12T08:14:36.830Z,14.65
2019-03-12T08:17:02.186Z,26.75
2019-03-12T08:19:14.365Z,19.87
2019-03-12T08:21:26.223Z,19.45
2019-03-12T08:23:41.310Z,19.07
2019-03-12T08:25:59.279Z,26.12
2019-03-12T08:28:10.995Z,18.45
2019-03-12T08:30:22.961Z,22.48
2019-03-12T08:32:48.442Z,19.37
2019-03-12T08:35:13.168Z,15.55
2019-03-12T08:37:22.547Z,16.85
2019-03-12T08:39:48.071Z,17.55
2019-03-12T08:41:57.382Z,17.12
2019-03-12T08:44:26.161Z,17.02
2019-03-12T08:46:43.013Z,17.15
2019-03-12T08:48:52.528Z,22.98
2019-03-12T08:51:05.005Z,16.95
2019-03-12T08:53:19.117Z,15.43
2019-03-12T08:55:28.502Z,16.87
2019-03-12T08:57:47.231Z,17.85
2019-03-12T08:59:57.067Z,19.57
2019-03-12T09:02:21.561Z,14.05
2019-03-12T09:04:30.768Z,16.23
2019-03-12T09:06:43.854Z,17.30
2019-03-12T09:09:09.866Z,18.12
2019-03-12T09:11:37.184Z,16.82
2019-03-12T09:13:53.462Z,20.32
2019-03-12T09:16:12.571Z,27.52
2019-03-12T09:18:28.787Z,19.07
2019-03-12T09:20:38.982Z,9.15
2019-03-12T09:23:04.346Z,17.27
2019-03-12T09:25:18.285Z,12.25
2019-03-12T09:27:48.568Z,17.15
2019-03-12T09:29:59.165Z,18.23
2019-03-12T09:32:24.792Z,15.10
2019-03-12T09:34:36.653Z,13.13
2019-03-12T09:37:02.972Z,11.20
2019-03-12T09:39:28.949Z,16.55
2019-03-12T09:41:38.298Z,16.35
2019-03-12T09:43:48.928Z,10.23
2019-03-12T09:46:03.943Z,13.32
2019-03-12T09:48:18.806Z,13.53
2019-03-12T09:50:28.191Z,15.68
2019-03-12T09:52:53.324Z,16.80
2019-03-12T09:55:06.671Z,13.58
2019-03-12T09:57:28.266Z,11.78
2019-03-12T09:59:35.600Z,10.58
2019-03-12T10:02:01.134Z,10.43
2019-03-12T10:04:26.508Z,9.03
2019-03-12T10:06:43.334Z,10.98
2019-03-12T10:08:58.014Z,6.90
2019-03-12T10:11:07.449Z,10.82
2019-03-12T10:13:18.108Z,17.67
2019-03-12T10:15:28.679Z,19.20
2019-03-12T10:17:48.173Z,11.97
2019-03-12T10:19:57.370Z,8.20
2019-03-12T10:22:04.805Z,13.78
2019-03-12T10:24:14.018Z,5.15
2019-03-12T10:26:28.996Z,11.18
2019-03-12T10:28:45.515Z,7.40
2019-03-12T10:31:11.082Z,7.00
2019-03-12T10:33:18.454Z,8.68
2019-03-12T10:35:27.878Z,9.45
2019-03-12T10:37:55.256Z,9.50
2019-03-12T10:40:16.459Z,10.10
2019-03-12T10:42:28.738Z,9.13
2019-03-12T10:44:38.033Z,10.55
2019-03-12T10:46:53.231Z,8.43
2019-03-12T10:49:01.059Z,8.10
2019-03-12T10:51:08.753Z,8.08
2019-03-12T10:53:17.245Z,9.18
2019-03-12T10:55:25.093Z,10.88
2019-03-12T10:57:32.859Z,9.75
2019-03-12T10:59:40.513Z,9.35
2019-03-12T11:01:49.171Z,5.72
2019-03-12T11:03:56.803Z,13.75
2019-03-12T11:06:04.683Z,9.55
2019-03-12T11:08:12.349Z,11.88
2019-03-12T11:10:20.651Z,8.35
2019-03-12T11:12:29.385Z,7.25
2019-03-12T11:14:37.170Z,6.12
2019-03-12T11:16:44.842Z,8.08
2019-03-12T11:18:53.774Z,6.15
2019-03-12T11:21:01.425Z,5.97
2019-03-12T11:23:10.085Z,8.38
2019-03-12T11:25:27.150Z,7.05
2019-03-12T11:27:28.461Z,6.05
2019-03-12T11:29:36.214Z,6.50
2019-03-12T11:31:43.971Z,5.92
2019-03-12T11:33:51.626Z,11.68
2019-03-12T11:35:59.358Z,8.25
2019-03-12T11:38:07.181Z,5.83
2019-03-12T11:40:23.835Z,6.70
2019-03-12T11:42:31.474Z,5.75
2019-03-12T11:44:39.478Z,8.30
2019-03-12T11:46:47.356Z,4.83
2019-03-12T11:48:54.953Z,8.28
2019-03-12T11:51:02.642Z,7.75
2019-03-12T11:53:10.546Z,4.15
2019-03-12T11:55:18.561Z,5.83
2019-03-12T11:57:26.288Z,6.92
2019-03-12T11:59:33.989Z,15.28
2019-03-12T12:01:41.533Z,14.30
2019-03-12T12:03:49.202Z,9.28
2019-03-12T12:05:56.934Z,5.62
2019-03-12T12:08:04.649Z,5.70
2019-03-12T12:10:18.385Z,3.90
2019-03-12T12:12:26.037Z,9.40
2019-03-12T12:14:33.693Z,6.92
2019-03-12T12:16:41.325Z,5.80
2019-03-12T12:18:48.903Z,13.43
2019-03-12T12:20:56.547Z,10.53
2019-03-12T12:23:04.246Z,4.53
2019-03-12T12:25:20.193Z,7.90
2019-03-12T12:27:27.746Z,7.78
2019-03-12T12:29:35.414Z,11.43
2019-03-12T12:31:43.007Z,12.63
2019-03-12T12:33:50.669Z,6.72
2019-03-12T12:35:58.343Z,10.72
2019-03-12T12:38:06.169Z,8.93
2019-03-12T12:40:17.505Z,5.87
2019-03-12T12:42:25.140Z,11.00
2019-03-12T12:44:32.957Z,8.50
2019-03-12T12:46:40.521Z,7.58
2019-03-12T12:48:49.146Z,9.80
2019-03-12T12:51:03.000Z,7.12
2019-03-12T12:53:07.245Z,5.72
2019-03-12T12:55:16.015Z,6.70
2019-03-12T12:57:24.218Z,5.53
2019-03-12T12:59:31.882Z,6.42
2019-03-12T13:01:39.441Z,6.53
2019-03-12T13:03:47.119Z,7.12
2019-03-12T13:05:55.790Z,6.20
2019-03-12T13:08:05.167Z,5.33
2019-03-12T13:10:20.410Z,9.00
2019-03-12T13:12:28.064Z,5.78
2019-03-12T13:14:41.368Z,5.80
2019-03-12T13:16:45.189Z,3.70
2019-03-12T13:18:53.044Z,5.20
2019-03-12T13:21:00.712Z,7.85
2019-03-12T13:23:09.548Z,7.37
2019-03-12T13:25:18.911Z,5.95
2019-03-12T13:27:26.840Z,7.25
2019-03-12T13:29:34.419Z,7.95
2019-03-12T13:31:42.150Z,6.85
2019-03-12T13:33:50.059Z,6.42
2019-03-12T13:35:57.706Z,8.73
2019-03-12T13:38:05.341Z,11.57
2019-03-12T13:40:19.366Z,10.38
2019-03-12T13:42:27.065Z,37.75
2019-03-12T13:44:35.020Z,17.37
2019-03-12T13:46:42.757Z,13.32
2019-03-12T13:48:50.496Z,18.42
2019-03-12T13:50:58.442Z,8.95
2019-03-12T13:53:06.221Z,7.33
2019-03-12T13:55:16.118Z,11.78
2019-03-12T13:57:24.633Z,8.25
2019-03-12T13:59:32.295Z,9.50
2019-03-12T14:01:39.903Z,13.32
2019-03-12T14:03:47.643Z,10.63
2019-03-12T14:05:55.312Z,11.15
2019-03-12T14:08:02.994Z,15.08
2019-03-12T14:10:19.714Z,9.88
2019-03-12T14:12:27.377Z,12.00
2019-03-12T14:14:34.964Z,7.05
2019-03-12T14:16:42.519Z,7.47
2019-03-12T14:18:50.151Z,7.10
2019-03-12T14:21:08.804Z,10.28
2019-03-12T14:23:29.229Z,11.78
2019-03-12T14:25:37.925Z,10.65
2019-03-12T14:27:45.559Z,10.43
2019-03-12T14:29:54.157Z,7.92
2019-03-12T14:32:02.812Z,7.05
2019-03-12T14:34:10.541Z,13.22
2019-03-12T14:36:18.336Z,9.63
2019-03-12T14:38:26.132Z,8.50
2019-03-12T14:40:33.789Z,8.10
2019-03-12T14:42:41.418Z,14.78
2019-03-12T14:44:48.986Z,12.78
2019-03-12T14:46:56.654Z,13.35
2019-03-12T14:49:04.364Z,14.93
2019-03-12T14:51:36.244Z,11.78
2019-03-12T14:53:47.991Z,6.25
2019-03-12T14:55:55.526Z,15.28
2019-03-12T14:58:04.302Z,8.08
2019-03-12T15:00:21.247Z,14.45
2019-03-12T15:02:31.583Z,22.82
2019-03-12T15:04:39.218Z,11.05
2019-03-12T15:06:46.982Z,11.03
2019-03-12T15:08:54.818Z,8.30
2019-03-12T15:11:02.442Z,11.53
2019-03-12T15:13:10.040Z,15.38
2019-03-12T15:15:17.671Z,10.80
2019-03-12T15:17:25.385Z,12.37
2019-03-12T15:19:32.967Z,10.98
2019-03-12T15:21:40.600Z,13.08
2019-03-12T15:23:48.304Z,9.23
2019-03-12T15:25:55.894Z,13.93
2019-03-12T15:28:03.463Z,10.00
2019-03-12T15:30:24.258Z,11.53
2019-03-12T15:32:31.953Z,17.02
2019-03-12T15:34:39.594Z,12.68
2019-03-12T15:36:47.166Z,16.37
2019-03-12T15:38:54.869Z,15.55
2019-03-12T15:41:02.434Z,12.73
2019-03-12T15:43:10.074Z,23.30
2019-03-12T15:45:18.814Z,14.43
2019-03-12T15:47:26.480Z,11.75
2019-03-12T15:49:34.082Z,12.73
2019-03-12T15:51:41.770Z,21.23
2019-03-12T15:53:49.349Z,16.23
2019-03-12T15:55:57.051Z,21.75
2019-03-12T15:58:05.299Z,23.05
2019-03-12T16:00:19.467Z,11.08
2019-03-12T16:02:27.143Z,27.30
2019-03-12T16:04:34.913Z,24.57
2019-03-12T16:06:42.587Z,13.65
2019-03-12T16:08:50.169Z,11.30
2019-03-12T16:10:58.715Z,12.07
2019-03-12T16:13:07.870Z,11.63
2019-03-12T16:15:19.538Z,9.35
2019-03-12T16:17:29.662Z,10.25
2019-03-12T16:19:36.630Z,8.75
2019-03-12T16:21:44.261Z,20.37
2019-03-12T16:23:52.852Z,35.95
2019-03-12T16:26:03.040Z,26.15
2019-03-12T16:28:10.615Z,25.27
2019-03-12T16:30:21.420Z,28.98
2019-03-12T16:32:28.993Z,36.88
2019-03-12T16:34:36.715Z,40.60
2019-03-12T16:36:44.472Z,34.60
2019-03-12T16:38:52.323Z,29.45
2019-03-12T16:40:59.896Z,29.95
2019-03-12T16:43:07.499Z,24.37
2019-03-12T16:45:20.029Z,26.33
2019-03-12T16:47:27.653Z,33.02
2019-03-12T16:49:35.248Z,29.85
2019-03-12T16:51:42.819Z,29.67
2019-03-12T16:53:51.685Z,31.97
2019-03-12T16:55:59.404Z,28.92
2019-03-12T16:58:07.556Z,34.98
2019-03-12T17:00:20.100Z,31.90
2019-03-12T17:02:27.704Z,33.55
2019-03-12T17:04:35.453Z,33.90
2019-03-12T17:06:43.078Z,38.85
2019-03-12T17:08:50.682Z,36.75
2019-03-12T17:11:02.418Z,38.38
2019-03-12T17:13:07.587Z,38.00
2019-03-12T17:15:25.100Z,43.65
2019-03-12T17:17:32.748Z,42.70
2019-03-12T17:19:40.396Z,46.20
2019-03-12T17:21:48.092Z,54.38
2019-03-12T17:23:55.846Z,68.50
2019-03-12T17:26:03.424Z,82.37
2019-03-12T17:28:11.343Z,81.15
2019-03-12T17:30:22.513Z,64.70
2019-03-12T17:32:30.084Z,58.55
2019-03-12T17:34:39.291Z,56.30
2019-03-12T17:36:47.934Z,56.50
2019-03-12T17:38:55.607Z,58.40
2019-03-12T17:41:03.306Z,64.60
2019-03-12T17:43:10.956Z,71.65
2019-03-12T17:45:18.668Z,65.08
2019-03-12T17:47:26.357Z,73.97
2019-03-12T17:49:34.029Z,137.90
2019-03-12T17:51:41.614Z,126.27
2019-03-12T17:53:49.603Z,169.37
2019-03-12T17:55:57.264Z,329.50
2019-03-12T17:58:06.067Z,315.20
2019-03-12T18:00:22.801Z,307.12
2019-03-12T18:02:41.856Z,327.50
2019-03-12T18:04:40.058Z,360.38
2019-03-12T18:06:50.800Z,358.45
2019-03-12T18:08:58.586Z,288.98
2019-03-12T18:11:06.450Z,270.52
2019-03-12T18:13:14.715Z,255.15
2019-03-12T18:15:22.865Z,254.35
2019-03-12T18:17:30.659Z,257.25
2019-03-12T18:19:38.348Z,281.75
2019-03-12T18:21:46.042Z,281.47
2019-03-12T18:23:54.700Z,260.35
2019-03-12T18:26:04.123Z,235.95
2019-03-12T18:28:11.790Z,275.70
2019-03-12T18:30:19.724Z,330.12
2019-03-12T18:32:28.305Z,213.45
2019-03-12T18:34:35.961Z,305.52
2019-03-12T18:36:43.551Z,262.35
2019-03-12T18:38:53.082Z,403.88
2019-03-12T18:41:00.721Z,367.50
2019-03-12T18:43:08.384Z,276.65
2019-03-12T18:45:23.595Z,289.25
2019-03-12T18:47:32.471Z,227.10
2019-03-12T18:49:40.054Z,147.82
2019-03-12T18:51:47.745Z,128.85
2019-03-12T18:53:55.340Z,147.98
2019-03-12T18:56:03.567Z,234.32
2019-03-12T18:58:11.887Z,203.88
2019-03-12T19:00:20.684Z,188.57
2019-03-12T19:02:28.349Z,149.60
2019-03-12T19:04:36.090Z,200.30
2019-03-12T19:06:43.756Z,181.87
2019-03-12T19:08:51.457Z,144.07
2019-03-12T19:11:00.488Z,223.72
2019-03-12T19:13:08.420Z,219.43
2019-03-12T19:15:16.642Z,148.75
2019-03-12T19:17:24.463Z,213.50
2019-03-12T19:19:33.436Z,280.00
2019-03-12T19:21:41.272Z,221.65
2019-03-12T19:23:49.020Z,174.62
2019-03-12T19:25:56.765Z,165.45
2019-03-12T19:28:04.699Z,167.18
2019-03-12T19:30:17.963Z,177.68
2019-03-12T19:32:45.428Z,328.20
2019-03-12T19:34:53.222Z,305.80
2019-03-12T19:37:01.283Z,235.40
2019-03-12T19:39:09.530Z,205.27
2019-03-12T19:41:17.469Z,197.43
2019-03-12T19:43:25.272Z,279.18
2019-03-12T19:45:33.066Z,359.62
2019-03-12T19:47:40.663Z,416.57
2019-03-12T19:49:48.379Z,345.45
2019-03-12T19:51:56.055Z,319.15
2019-03-12T19:54:03.726Z,353.25
2019-03-12T19:56:11.355Z,341.98
2019-03-12T19:58:19.020Z,344.43
2019-03-12T20:00:27.454Z,355.25
2019-03-12T20:02:36.343Z,361.02
2019-03-12T20:04:47.409Z,412.15
2019-03-12T20:06:53.961Z,458.18
2019-03-12T20:09:02.053Z,497.10
2019-03-12T20:12:07.922Z,489.83
2019-03-12T20:14:53.634Z,497.00
2019-03-12T20:17:26.094Z,537.57
2019-03-12T20:19:56.091Z,519.77
2019-03-12T20:22:32.352Z,501.22
2019-03-12T20:25:14.920Z,438.07
2019-03-12T20:27:55.410Z,419.60
2019-03-12T20:30:33.690Z,428.92
2019-03-12T20:33:19.428Z,444.30
2019-03-12T20:36:00.028Z,459.87
2019-03-12T20:38:56.384Z,444.62
2019-03-12T20:41:37.509Z,438.35
2019-03-12T20:44:26.286Z,396.20
2019-03-12T20:46:55.556Z,443.65
2019-03-12T20:49:16.098Z,441.92
2019-03-12T20:51:51.311Z,454.00
2019-03-12T20:54:32.347Z,429.20
2019-03-12T20:57:24.249Z,432.45
2019-03-12T21:00:00.609Z,350.40
2019-03-12T21:03:02.960Z,388.35
2019-03-12T21:05:59.239Z,357.37
2019-03-12T21:09:01.915Z,307.55
2019-03-12T21:11:56.757Z,269.50
2019-03-12T21:14:44.003Z,198.07
2019-03-12T21:17:11.490Z,182.47
2019-03-12T21:20:14.272Z,167.98
2019-03-12T21:23:06.356Z,161.68
2019-03-12T21:25:50.825Z,159.33
2019-03-12T21:28:19.510Z,165.52
2019-03-12T21:30:27.711Z,188.57
2019-03-12T21:32:35.553Z,200.60
2019-03-12T21:34:44.046Z,199.65
2019-03-12T21:36:51.810Z,228.70
2019-03-12T21:38:59.545Z,217.37
2019-03-12T21:41:07.706Z,223.55
2019-03-12T21:43:15.435Z,259.35
2019-03-12T21:45:23.346Z,279.40
2019-03-12T21:47:30.978Z,370.48
2019-03-12T21:49:38.722Z,313.02
2019-03-12T21:51:46.472Z,258.15
2019-03-12T21:53:55.740Z,720.93
2019-03-12T21:56:03.360Z,543.15
2019-03-12T21:58:14.167Z,606.60
2019-03-12T22:00:22.540Z,369.50
2019-03-12T22:02:31.253Z,224.00
2019-03-12T22:04:38.918Z,221.32
2019-03-12T22:06:46.623Z,172.68
2019-03-12T22:08:54.492Z,579.17
2019-03-12T22:11:02.160Z,509.35
2019-03-12T22:13:10.860Z,184.63
2019-03-12T22:15:18.519Z,165.10
2019-03-12T22:17:26.272Z,163.80
2019-03-12T22:19:33.885Z,158.15
2019-03-12T22:21:57.978Z,144.60
2019-03-12T22:24:09.278Z,161.57
2019-03-12T22:26:17.204Z,154.15
2019-03-12T22:28:24.784Z,154.20
2019-03-12T22:30:32.492Z,179.95
2019-03-12T22:32:40.154Z,227.32
2019-03-12T22:34:47.837Z,145.13
2019-03-12T22:36:56.495Z,168.30
2019-03-12T22:39:05.054Z,198.65
2019-03-12T22:41:13.092Z,196.57
2019-03-12T22:43:20.842Z,178.05
2019-03-12T22:45:28.586Z,255.50
2019-03-12T22:47:36.280Z,201.60
2019-03-12T22:49:43.974Z,226.53
2019-03-12T22:51:51.602Z,264.12
2019-03-12T22:54:00.487Z,227.87
2019-03-12T22:56:08.083Z,321.33
2019-03-12T22:58:15.986Z,413.55
2019-03-12T23:00:42.837Z,214.90
2019-03-12T23:03:09.185Z,297.57
2019-03-12T23:05:35.199Z,309.97
2019-03-12T23:08:02.101Z,217.20
2019-03-12T23:10:14.878Z,549.75
2019-03-12T23:12:24.398Z,284.98
2019-03-12T23:14:32.986Z,249.98
2019-03-12T23:16:41.056Z,533.53
2019-03-12T23:18:48.913Z,376.52
2019-03-12T23:20:56.607Z,322.67
2019-03-12T23:23:04.406Z,900.07
2019-03-12T23:25:12.627Z,543.77
2019-03-12T23:27:21.956Z,561.38
2019-03-12T23:29:29.816Z,522.02
2019-03-12T23:31:37.655Z,323.52
2019-03-12T23:33:45.612Z,521.57
2019-03-12T23:35:53.578Z,416.08
2019-03-12T23:38:01.332Z,347.93
2019-03-12T23:40:18.908Z,251.62
2019-03-12T23:42:27.986Z,376.10
2019-03-12T23:44:35.886Z,319.70
2019-03-12T23:46:43.649Z,225.05
2019-03-12T23:48:51.399Z,259.60
2019-03-12T23:50:59.072Z,236.50
2019-03-12T23:53:07.303Z,205.57
2019-03-12T23:55:18.716Z,179.87
2019-03-12T23:57:26.453Z,181.93
2019-03-12T23:59:34.384Z,172.02
